sensor_id;sensor_type;location;lat;lon;timestamp;P1;durP1;ratioP1;P2;durP2;ratioP2
22774;SDS011;11554;51.106;3.684;2023-09-12T00:00:00;20.00;;;15.10;;
22774;SDS011;11554;51.106;3.684;2023-09-12T00:05:00;21.40;;;15.00;;
22774;SDS011;11554;51.106;3.684;2023-09-12T00:10:00;21.40;;;15.00;;
22774;SDS011;11554;51.106;3.684;2023-09-12T00:15:00;16.30;;;12.30;;
22774;SDS011;11554;51.106;3.684;2023-09-12T00:20:00;16.30;;;12.30;;
22774;SDS011;11554;51.106;3.684;2023-09-12T00:25:00;19.40;;;14.70;;
22774;SDS011;11554;51.106;3.684;2023-09-12T00:30:00;19.40;;;14.70;;
22774;SDS011;11554;51.106;3.684;2023-09-12T00:35:00;13.80;;;10.90;;
22774;SDS011;11554;51.106;3.684;2023-09-12T00:40:00;13.80;;;10.90;;
22774;SDS011;11554;51.106;3.684;2023-09-12T00:45:00;18.70;;;13.40;;
22774;SDS011;11554;51.106;3.684;2023-09-12T00:50:00;18.70;;;13.40;;
22774;SDS011;11554;51.106;3.684;2023-09-12T00:55:00;17.60;;;12.50;;
22774;SDS011;11554;51.106;3.684;2023-09-12T01:00:02;17.60;;;12.50;;
22774;SDS011;11554;51.106;3.684;2023-09-12T01:05:00;17.60;;;13.80;;
22774;SDS011;11554;51.106;3.684;2023-09-12T01:10:00;17.60;;;13.80;;
22774;SDS011;11554;51.106;3.684;2023-09-12T01:15:00;20.40;;;14.60;;
22774;SDS011;11554;51.106;3.684;2023-09-12T01:20:04;20.40;;;14.60;;
22774;SDS011;11554;51.106;3.684;2023-09-12T01:25:07;23.20;;;17.10;;
22774;SDS011;11554;51.106;3.684;2023-09-12T01:30:02;23.20;;;17.10;;
22774;SDS011;11554;51.106;3.684;2023-09-12T01:35:01;19.80;;;15.70;;
22774;SDS011;11554;51.106;3.684;2023-09-12T01:40:01;19.80;;;15.70;;
22774;SDS011;11554;51.106;3.684;2023-09-12T01:45:01;23.90;;;17.30;;
22774;SDS011;11554;51.106;3.684;2023-09-12T01:50:01;23.90;;;17.30;;
22774;SDS011;11554;51.106;3.684;2023-09-12T01:55:02;26.40;;;19.30;;
22774;SDS011;11554;51.106;3.684;2023-09-12T02:00:00;26.40;;;19.30;;
22774;SDS011;11554;51.106;3.684;2023-09-12T02:05:07;27.00;;;19.40;;
22774;SDS011;11554;51.106;3.684;2023-09-12T02:10:00;27.00;;;19.40;;
22774;SDS011;11554;51.106;3.684;2023-09-12T02:15:00;23.90;;;19.30;;
22774;SDS011;11554;51.106;3.684;2023-09-12T02:20:00;23.90;;;19.30;;
22774;SDS011;11554;51.106;3.684;2023-09-12T02:25:00;24.50;;;18.30;;
22774;SDS011;11554;51.106;3.684;2023-09-12T02:30:00;24.50;;;18.30;;
22774;SDS011;11554;51.106;3.684;2023-09-12T02:35:00;24.30;;;18.00;;
22774;SDS011;11554;51.106;3.684;2023-09-12T02:40:00;24.30;;;18.00;;
22774;SDS011;11554;51.106;3.684;2023-09-12T02:45:00;28.10;;;20.30;;
22774;SDS011;11554;51.106;3.684;2023-09-12T02:50:00;28.10;;;20.30;;
22774;SDS011;11554;51.106;3.684;2023-09-12T02:55:00;26.10;;;19.10;;
22774;SDS011;11554;51.106;3.684;2023-09-12T03:00:00;26.10;;;19.10;;
22774;SDS011;11554;51.106;3.684;2023-09-12T03:05:00;26.90;;;19.10;;
22774;SDS011;11554;51.106;3.684;2023-09-12T03:10:00;26.90;;;19.10;;
22774;SDS011;11554;51.106;3.684;2023-09-12T03:15:00;26.90;;;19.20;;
22774;SDS011;11554;51.106;3.684;2023-09-12T03:20:00;26.90;;;19.20;;
22774;SDS011;11554;51.106;3.684;2023-09-12T03:25:00;33.00;;;21.00;;
22774;SDS011;11554;51.106;3.684;2023-09-12T03:30:00;33.00;;;21.00;;
22774;SDS011;11554;51.106;3.684;2023-09-12T03:35:00;29.80;;;20.50;;
22774;SDS011;11554;51.106;3.684;2023-09-12T03:40:00;29.80;;;20.50;;
22774;SDS011;11554;51.106;3.684;2023-09-12T03:45:00;30.30;;;20.00;;
22774;SDS011;11554;51.106;3.684;2023-09-12T03:50:00;30.30;;;20.00;;
22774;SDS011;11554;51.106;3.684;2023-09-12T03:55:00;31.60;;;20.40;;
22774;SDS011;11554;51.106;3.684;2023-09-12T04:00:00;31.60;;;20.40;;
22774;SDS011;11554;51.106;3.684;2023-09-12T04:05:00;30.80;;;20.60;;
22774;SDS011;11554;51.106;3.684;2023-09-12T04:10:00;30.80;;;20.60;;
22774;SDS011;11554;51.106;3.684;2023-09-12T04:15:00;29.50;;;20.50;;
22774;SDS011;11554;51.106;3.684;2023-09-12T04:20:00;29.50;;;20.50;;
22774;SDS011;11554;51.106;3.684;2023-09-12T04:25:00;28.20;;;19.30;;
22774;SDS011;11554;51.106;3.684;2023-09-12T04:30:00;28.20;;;19.30;;
22774;SDS011;11554;51.106;3.684;2023-09-12T04:35:00;34.00;;;21.50;;
22774;SDS011;11554;51.106;3.684;2023-09-12T04:40:00;34.00;;;21.50;;
22774;SDS011;11554;51.106;3.684;2023-09-12T04:45:00;50.50;;;27.20;;
22774;SDS011;11554;51.106;3.684;2023-09-12T04:50:00;50.50;;;27.20;;
22774;SDS011;11554;51.106;3.684;2023-09-12T04:55:00;52.70;;;28.30;;
22774;SDS011;11554;51.106;3.684;2023-09-12T05:00:00;52.70;;;28.30;;
22774;SDS011;11554;51.106;3.684;2023-09-12T05:05:00;58.70;;;31.40;;
22774;SDS011;11554;51.106;3.684;2023-09-12T05:10:00;58.70;;;31.40;;
22774;SDS011;11554;51.106;3.684;2023-09-12T05:15:00;59.90;;;30.70;;
22774;SDS011;11554;51.106;3.684;2023-09-12T05:20:00;59.90;;;30.70;;
22774;SDS011;11554;51.106;3.684;2023-09-12T05:25:00;53.80;;;30.10;;
22774;SDS011;11554;51.106;3.684;2023-09-12T05:30:00;53.80;;;30.10;;
22774;SDS011;11554;51.106;3.684;2023-09-12T05:35:00;53.00;;;28.50;;
22774;SDS011;11554;51.106;3.684;2023-09-12T05:40:00;53.00;;;28.50;;
22774;SDS011;11554;51.106;3.684;2023-09-12T05:45:00;55.50;;;30.20;;
22774;SDS011;11554;51.106;3.684;2023-09-12T05:50:00;55.50;;;30.20;;
22774;SDS011;11554;51.106;3.684;2023-09-12T05:55:00;51.90;;;28.60;;
22774;SDS011;11554;51.106;3.684;2023-09-12T06:00:00;51.90;;;28.60;;
22774;SDS011;11554;51.106;3.684;2023-09-12T06:05:00;49.50;;;28.00;;
22774;SDS011;11554;51.106;3.684;2023-09-12T06:10:00;49.50;;;28.00;;
22774;SDS011;11554;51.106;3.684;2023-09-12T06:15:00;79.30;;;27.90;;
22774;SDS011;11554;51.106;3.684;2023-09-12T06:20:00;79.30;;;27.90;;
22774;SDS011;11554;51.106;3.684;2023-09-12T06:25:00;49.50;;;26.60;;
22774;SDS011;11554;51.106;3.684;2023-09-12T06:30:00;49.50;;;26.60;;
22774;SDS011;11554;51.106;3.684;2023-09-12T06:35:00;38.40;;;24.20;;
22774;SDS011;11554;51.106;3.684;2023-09-12T06:40:00;38.40;;;24.20;;
22774;SDS011;11554;51.106;3.684;2023-09-12T06:45:00;41.20;;;25.70;;
22774;SDS011;11554;51.106;3.684;2023-09-12T06:50:01;41.20;;;25.70;;
22774;SDS011;11554;51.106;3.684;2023-09-12T06:55:00;41.20;;;25.00;;
22774;SDS011;11554;51.106;3.684;2023-09-12T07:00:01;41.20;;;25.00;;
22774;SDS011;11554;51.106;3.684;2023-09-12T07:05:00;42.00;;;26.40;;
22774;SDS011;11554;51.106;3.684;2023-09-12T07:10:00;42.00;;;26.40;;
22774;SDS011;11554;51.106;3.684;2023-09-12T07:15:00;46.00;;;26.60;;
22774;SDS011;11554;51.106;3.684;2023-09-12T07:20:00;46.00;;;26.60;;
22774;SDS011;11554;51.106;3.684;2023-09-12T07:25:00;42.60;;;26.40;;
22774;SDS011;11554;51.106;3.684;2023-09-12T07:30:00;42.60;;;26.40;;
22774;SDS011;11554;51.106;3.684;2023-09-12T07:35:00;47.00;;;28.50;;
22774;SDS011;11554;51.106;3.684;2023-09-12T07:40:00;47.00;;;28.50;;
22774;SDS011;11554;51.106;3.684;2023-09-12T07:45:01;41.00;;;25.70;;
22774;SDS011;11554;51.106;3.684;2023-09-12T07:50:01;41.00;;;25.70;;
22774;SDS011;11554;51.106;3.684;2023-09-12T07:55:01;50.20;;;30.10;;
22774;SDS011;11554;51.106;3.684;2023-09-12T08:00:00;50.20;;;30.10;;
22774;SDS011;11554;51.106;3.684;2023-09-12T08:05:00;46.70;;;29.10;;
22774;SDS011;11554;51.106;3.684;2023-09-12T08:10:00;46.70;;;29.10;;
22774;SDS011;11554;51.106;3.684;2023-09-12T08:15:00;50.30;;;30.40;;
22774;SDS011;11554;51.106;3.684;2023-09-12T08:20:00;50.30;;;30.40;;
22774;SDS011;11554;51.106;3.684;2023-09-12T08:25:00;44.60;;;29.40;;
22774;SDS011;11554;51.106;3.684;2023-09-12T08:30:00;44.60;;;29.40;;
22774;SDS011;11554;51.106;3.684;2023-09-12T08:35:00;47.70;;;29.90;;
22774;SDS011;11554;51.106;3.684;2023-09-12T08:40:01;47.70;;;29.90;;
22774;SDS011;11554;51.106;3.684;2023-09-12T08:45:01;55.80;;;33.00;;
22774;SDS011;11554;51.106;3.684;2023-09-12T08:50:01;55.80;;;33.00;;
22774;SDS011;11554;51.106;3.684;2023-09-12T08:55:00;53.80;;;32.40;;
22774;SDS011;11554;51.106;3.684;2023-09-12T09:00:01;53.80;;;32.40;;
22774;SDS011;11554;51.106;3.684;2023-09-12T09:05:02;47.00;;;29.30;;
22774;SDS011;11554;51.106;3.684;2023-09-12T09:10:02;47.00;;;29.30;;
22774;SDS011;11554;51.106;3.684;2023-09-12T09:20:00;46.00;;;28.70;;
22774;SDS011;11554;51.106;3.684;2023-09-12T09:25:10;41.80;;;27.40;;
22774;SDS011;11554;51.106;3.684;2023-09-12T09:30:00;41.80;;;27.40;;
22774;SDS011;11554;51.106;3.684;2023-09-12T09:35:00;38.60;;;26.20;;
22774;SDS011;11554;51.106;3.684;2023-09-12T09:40:00;38.60;;;26.20;;
22774;SDS011;11554;51.106;3.684;2023-09-12T09:45:00;43.10;;;27.50;;
22774;SDS011;11554;51.106;3.684;2023-09-12T09:50:00;43.10;;;27.50;;
22774;SDS011;11554;51.106;3.684;2023-09-12T09:55:00;48.80;;;28.60;;
22774;SDS011;11554;51.106;3.684;2023-09-12T10:00:00;48.80;;;28.60;;
22774;SDS011;11554;51.106;3.684;2023-09-12T10:05:03;49.30;;;30.50;;
22774;SDS011;11554;51.106;3.684;2023-09-12T10:10:02;49.30;;;30.50;;
22774;SDS011;11554;51.106;3.684;2023-09-12T10:15:00;52.00;;;33.00;;
22774;SDS011;11554;51.106;3.684;2023-09-12T10:20:03;52.00;;;33.00;;
22774;SDS011;11554;51.106;3.684;2023-09-12T10:25:00;48.60;;;32.30;;
22774;SDS011;11554;51.106;3.684;2023-09-12T10:30:02;48.60;;;32.30;;
22774;SDS011;11554;51.106;3.684;2023-09-12T10:35:02;52.20;;;35.30;;
22774;SDS011;11554;51.106;3.684;2023-09-12T10:40:02;52.20;;;35.30;;
22774;SDS011;11554;51.106;3.684;2023-09-12T10:45:01;45.90;;;31.90;;
22774;SDS011;11554;51.106;3.684;2023-09-12T10:50:01;45.90;;;31.90;;
22774;SDS011;11554;51.106;3.684;2023-09-12T10:55:04;39.80;;;28.00;;
22774;SDS011;11554;51.106;3.684;2023-09-12T11:00:10;39.80;;;28.00;;
22774;SDS011;11554;51.106;3.684;2023-09-12T11:05:02;37.30;;;27.70;;
22774;SDS011;11554;51.106;3.684;2023-09-12T11:10:18;37.30;;;27.70;;
22774;SDS011;11554;51.106;3.684;2023-09-12T11:15:04;42.50;;;29.10;;
22774;SDS011;11554;51.106;3.684;2023-09-12T11:20:02;42.50;;;29.10;;
22774;SDS011;11554;51.106;3.684;2023-09-12T11:25:02;38.30;;;26.70;;
22774;SDS011;11554;51.106;3.684;2023-09-12T11:30:04;38.30;;;26.70;;
22774;SDS011;11554;51.106;3.684;2023-09-12T11:35:05;33.00;;;23.00;;
22774;SDS011;11554;51.106;3.684;2023-09-12T11:40:00;33.00;;;23.00;;
22774;SDS011;11554;51.106;3.684;2023-09-12T11:45:00;31.00;;;21.60;;
22774;SDS011;11554;51.106;3.684;2023-09-12T11:50:00;31.00;;;21.60;;
22774;SDS011;11554;51.106;3.684;2023-09-12T11:55:00;33.90;;;23.40;;
22774;SDS011;11554;51.106;3.684;2023-09-12T12:00:02;33.90;;;23.40;;
22774;SDS011;11554;51.106;3.684;2023-09-12T12:05:00;34.10;;;23.20;;
22774;SDS011;11554;51.106;3.684;2023-09-12T12:10:00;34.10;;;23.20;;
22774;SDS011;11554;51.106;3.684;2023-09-12T12:15:00;32.80;;;22.40;;
22774;SDS011;11554;51.106;3.684;2023-09-12T12:20:00;32.80;;;22.40;;
22774;SDS011;11554;51.106;3.684;2023-09-12T12:25:06;32.30;;;24.30;;
22774;SDS011;11554;51.106;3.684;2023-09-12T12:30:00;32.30;;;24.30;;
22774;SDS011;11554;51.106;3.684;2023-09-12T12:35:00;32.30;;;24.30;;
22774;SDS011;11554;51.106;3.684;2023-09-12T12:40:00;30.90;;;21.30;;
22774;SDS011;11554;51.106;3.684;2023-09-12T12:45:00;30.90;;;21.30;;
22774;SDS011;11554;51.106;3.684;2023-09-12T12:50:00;32.90;;;23.80;;
22774;SDS011;11554;51.106;3.684;2023-09-12T12:55:04;32.90;;;23.80;;
22774;SDS011;11554;51.106;3.684;2023-09-12T13:00:01;32.00;;;23.70;;
22774;SDS011;11554;51.106;3.684;2023-09-12T13:05:00;32.00;;;23.70;;
22774;SDS011;11554;51.106;3.684;2023-09-12T13:10:01;30.50;;;23.20;;
22774;SDS011;11554;51.106;3.684;2023-09-12T13:15:01;30.50;;;23.20;;
22774;SDS011;11554;51.106;3.684;2023-09-12T13:20:00;30.80;;;22.50;;
22774;SDS011;11554;51.106;3.684;2023-09-12T13:25:00;30.80;;;22.50;;
22774;SDS011;11554;51.106;3.684;2023-09-12T13:30:00;30.90;;;20.90;;
22774;SDS011;11554;51.106;3.684;2023-09-12T13:35:00;30.90;;;20.90;;
22774;SDS011;11554;51.106;3.684;2023-09-12T13:40:00;27.10;;;21.00;;
22774;SDS011;11554;51.106;3.684;2023-09-12T13:45:00;27.10;;;21.00;;
22774;SDS011;11554;51.106;3.684;2023-09-12T13:50:00;27.80;;;21.60;;
22774;SDS011;11554;51.106;3.684;2023-09-12T13:55:01;27.80;;;21.60;;
22774;SDS011;11554;51.106;3.684;2023-09-12T14:00:00;27.10;;;19.90;;
22774;SDS011;11554;51.106;3.684;2023-09-12T14:05:00;27.10;;;19.90;;
22774;SDS011;11554;51.106;3.684;2023-09-12T14:10:00;23.70;;;18.70;;
22774;SDS011;11554;51.106;3.684;2023-09-12T14:15:00;23.70;;;18.70;;
22774;SDS011;11554;51.106;3.684;2023-09-12T14:20:00;23.20;;;17.90;;
22774;SDS011;11554;51.106;3.684;2023-09-12T14:25:00;23.20;;;17.90;;
22774;SDS011;11554;51.106;3.684;2023-09-12T14:30:00;17.50;;;15.10;;
22774;SDS011;11554;51.106;3.684;2023-09-12T14:35:00;17.50;;;15.10;;
22774;SDS011;11554;51.106;3.684;2023-09-12T14:40:04;20.70;;;15.40;;
22774;SDS011;11554;51.106;3.684;2023-09-12T14:45:00;20.70;;;15.40;;
22774;SDS011;11554;51.106;3.684;2023-09-12T14:50:00;19.60;;;15.20;;
22774;SDS011;11554;51.106;3.684;2023-09-12T14:55:00;19.60;;;15.20;;
22774;SDS011;11554;51.106;3.684;2023-09-12T15:00:00;17.30;;;14.30;;
22774;SDS011;11554;51.106;3.684;2023-09-12T15:05:01;17.30;;;14.30;;
22774;SDS011;11554;51.106;3.684;2023-09-12T15:10:00;20.30;;;15.70;;
22774;SDS011;11554;51.106;3.684;2023-09-12T15:15:03;20.30;;;15.70;;
22774;SDS011;11554;51.106;3.684;2023-09-12T15:20:00;25.80;;;20.30;;
22774;SDS011;11554;51.106;3.684;2023-09-12T15:25:01;25.80;;;20.30;;
22774;SDS011;11554;51.106;3.684;2023-09-12T15:30:00;23.60;;;19.00;;
22774;SDS011;11554;51.106;3.684;2023-09-12T15:35:00;23.60;;;19.00;;
22774;SDS011;11554;51.106;3.684;2023-09-12T15:40:00;23.00;;;17.70;;
22774;SDS011;11554;51.106;3.684;2023-09-12T15:45:00;23.00;;;17.70;;
22774;SDS011;11554;51.106;3.684;2023-09-12T15:50:00;19.20;;;16.40;;
22774;SDS011;11554;51.106;3.684;2023-09-12T15:55:00;19.20;;;16.40;;
22774;SDS011;11554;51.106;3.684;2023-09-12T16:00:00;16.70;;;14.80;;
22774;SDS011;11554;51.106;3.684;2023-09-12T16:05:00;16.70;;;14.80;;
22774;SDS011;11554;51.106;3.684;2023-09-12T16:10:00;19.50;;;16.70;;
22774;SDS011;11554;51.106;3.684;2023-09-12T16:15:00;19.50;;;16.70;;
22774;SDS011;11554;51.106;3.684;2023-09-12T16:20:00;19.10;;;16.40;;
22774;SDS011;11554;51.106;3.684;2023-09-12T16:25:00;19.10;;;16.40;;
22774;SDS011;11554;51.106;3.684;2023-09-12T16:30:00;19.00;;;17.00;;
22774;SDS011;11554;51.106;3.684;2023-09-12T16:35:00;19.00;;;17.00;;
22774;SDS011;11554;51.106;3.684;2023-09-12T16:40:01;19.60;;;16.10;;
22774;SDS011;11554;51.106;3.684;2023-09-12T16:45:00;19.60;;;16.10;;
22774;SDS011;11554;51.106;3.684;2023-09-12T16:50:00;24.90;;;18.60;;
22774;SDS011;11554;51.106;3.684;2023-09-12T16:55:00;24.90;;;18.60;;
22774;SDS011;11554;51.106;3.684;2023-09-12T17:00:00;23.60;;;20.70;;
22774;SDS011;11554;51.106;3.684;2023-09-12T17:05:00;23.60;;;20.70;;
22774;SDS011;11554;51.106;3.684;2023-09-12T17:10:00;25.40;;;20.50;;
22774;SDS011;11554;51.106;3.684;2023-09-12T17:15:00;25.40;;;20.50;;
22774;SDS011;11554;51.106;3.684;2023-09-12T17:20:00;25.80;;;21.70;;
22774;SDS011;11554;51.106;3.684;2023-09-12T17:25:00;25.80;;;21.70;;
22774;SDS011;11554;51.106;3.684;2023-09-12T17:30:00;24.10;;;19.90;;
22774;SDS011;11554;51.106;3.684;2023-09-12T17:35:00;24.10;;;19.90;;
22774;SDS011;11554;51.106;3.684;2023-09-12T17:40:00;24.60;;;20.70;;
22774;SDS011;11554;51.106;3.684;2023-09-12T17:45:00;24.60;;;20.70;;
22774;SDS011;11554;51.106;3.684;2023-09-12T17:50:00;27.90;;;22.30;;
22774;SDS011;11554;51.106;3.684;2023-09-12T17:55:00;27.90;;;22.30;;
22774;SDS011;11554;51.106;3.684;2023-09-12T18:00:00;27.30;;;22.90;;
22774;SDS011;11554;51.106;3.684;2023-09-12T18:05:00;27.30;;;22.90;;
22774;SDS011;11554;51.106;3.684;2023-09-12T18:10:00;31.60;;;27.00;;
22774;SDS011;11554;51.106;3.684;2023-09-12T18:15:00;31.60;;;27.00;;
22774;SDS011;11554;51.106;3.684;2023-09-12T18:20:00;35.70;;;29.90;;
22774;SDS011;11554;51.106;3.684;2023-09-12T18:25:00;35.70;;;29.90;;
22774;SDS011;11554;51.106;3.684;2023-09-12T18:30:00;29.30;;;23.20;;
22774;SDS011;11554;51.106;3.684;2023-09-12T18:35:00;29.30;;;23.20;;
22774;SDS011;11554;51.106;3.684;2023-09-12T18:40:00;25.30;;;20.60;;
22774;SDS011;11554;51.106;3.684;2023-09-12T18:45:00;25.30;;;20.60;;
22774;SDS011;11554;51.106;3.684;2023-09-12T18:50:01;23.90;;;18.90;;
22774;SDS011;11554;51.106;3.684;2023-09-12T18:55:00;23.90;;;18.90;;
22774;SDS011;11554;51.106;3.684;2023-09-12T19:00:00;25.30;;;19.30;;
22774;SDS011;11554;51.106;3.684;2023-09-12T19:05:00;25.30;;;19.30;;
22774;SDS011;11554;51.106;3.684;2023-09-12T19:10:00;23.20;;;19.10;;
22774;SDS011;11554;51.106;3.684;2023-09-12T19:15:00;23.20;;;19.10;;
22774;SDS011;11554;51.106;3.684;2023-09-12T19:20:00;25.00;;;19.10;;
22774;SDS011;11554;51.106;3.684;2023-09-12T19:25:00;25.00;;;19.10;;
22774;SDS011;11554;51.106;3.684;2023-09-12T19:30:00;24.70;;;19.00;;
22774;SDS011;11554;51.106;3.684;2023-09-12T19:35:00;24.70;;;19.00;;
22774;SDS011;11554;51.106;3.684;2023-09-12T19:40:00;25.40;;;20.20;;
22774;SDS011;11554;51.106;3.684;2023-09-12T19:45:00;25.40;;;20.20;;
22774;SDS011;11554;51.106;3.684;2023-09-12T19:50:00;30.90;;;23.30;;
22774;SDS011;11554;51.106;3.684;2023-09-12T19:55:00;30.90;;;23.30;;
22774;SDS011;11554;51.106;3.684;2023-09-12T20:00:00;29.80;;;22.90;;
22774;SDS011;11554;51.106;3.684;2023-09-12T20:05:00;29.80;;;22.90;;
22774;SDS011;11554;51.106;3.684;2023-09-12T20:10:00;32.10;;;24.40;;
22774;SDS011;11554;51.106;3.684;2023-09-12T20:15:00;32.10;;;24.40;;
22774;SDS011;11554;51.106;3.684;2023-09-12T20:20:00;31.70;;;24.80;;
22774;SDS011;11554;51.106;3.684;2023-09-12T20:25:00;31.70;;;24.80;;
22774;SDS011;11554;51.106;3.684;2023-09-12T20:30:00;30.00;;;23.90;;
22774;SDS011;11554;51.106;3.684;2023-09-12T20:35:00;30.00;;;23.90;;
22774;SDS011;11554;51.106;3.684;2023-09-12T20:40:00;33.60;;;24.70;;
22774;SDS011;11554;51.106;3.684;2023-09-12T20:45:00;33.60;;;24.70;;
22774;SDS011;11554;51.106;3.684;2023-09-12T20:50:00;36.30;;;25.30;;
22774;SDS011;11554;51.106;3.684;2023-09-12T20:55:00;36.30;;;25.30;;
22774;SDS011;11554;51.106;3.684;2023-09-12T21:00:00;30.30;;;22.70;;
22774;SDS011;11554;51.106;3.684;2023-09-12T21:05:00;30.30;;;22.70;;
22774;SDS011;11554;51.106;3.684;2023-09-12T21:10:00;30.60;;;22.00;;
22774;SDS011;11554;51.106;3.684;2023-09-12T21:15:00;30.60;;;22.00;;
22774;SDS011;11554;51.106;3.684;2023-09-12T21:20:00;31.10;;;22.30;;
22774;SDS011;11554;51.106;3.684;2023-09-12T21:25:00;31.10;;;22.30;;
22774;SDS011;11554;51.106;3.684;2023-09-12T21:30:02;29.60;;;21.10;;
22774;SDS011;11554;51.106;3.684;2023-09-12T21:35:10;29.60;;;21.10;;
22774;SDS011;11554;51.106;3.684;2023-09-12T21:40:00;27.90;;;20.20;;
22774;SDS011;11554;51.106;3.684;2023-09-12T21:45:00;27.90;;;20.20;;
22774;SDS011;11554;51.106;3.684;2023-09-12T21:50:00;26.60;;;19.80;;
22774;SDS011;11554;51.106;3.684;2023-09-12T21:55:00;26.60;;;19.80;;
22774;SDS011;11554;51.106;3.684;2023-09-12T22:00:01;27.90;;;20.80;;
22774;SDS011;11554;51.106;3.684;2023-09-12T22:05:00;27.90;;;20.80;;
22774;SDS011;11554;51.106;3.684;2023-09-12T22:10:00;29.40;;;20.10;;
22774;SDS011;11554;51.106;3.684;2023-09-12T22:15:00;29.40;;;20.10;;
22774;SDS011;11554;51.106;3.684;2023-09-12T22:20:01;29.00;;;20.40;;
22774;SDS011;11554;51.106;3.684;2023-09-12T22:25:00;29.00;;;20.40;;
22774;SDS011;11554;51.106;3.684;2023-09-12T22:30:00;29.10;;;19.80;;
22774;SDS011;11554;51.106;3.684;2023-09-12T22:35:00;29.10;;;19.80;;
22774;SDS011;11554;51.106;3.684;2023-09-12T22:40:00;25.10;;;17.50;;
22774;SDS011;11554;51.106;3.684;2023-09-12T22:45:00;25.10;;;17.50;;
22774;SDS011;11554;51.106;3.684;2023-09-12T22:50:03;26.40;;;17.90;;
22774;SDS011;11554;51.106;3.684;2023-09-12T22:55:00;26.40;;;17.90;;
22774;SDS011;11554;51.106;3.684;2023-09-12T23:00:00;26.80;;;19.00;;
22774;SDS011;11554;51.106;3.684;2023-09-12T23:05:00;26.80;;;19.00;;
22774;SDS011;11554;51.106;3.684;2023-09-12T23:10:00;23.90;;;17.20;;
22774;SDS011;11554;51.106;3.684;2023-09-12T23:15:00;23.90;;;17.20;;
22774;SDS011;11554;51.106;3.684;2023-09-12T23:20:00;22.90;;;15.60;;
22774;SDS011;11554;51.106;3.684;2023-09-12T23:25:00;22.90;;;15.60;;
22774;SDS011;11554;51.106;3.684;2023-09-12T23:30:00;23.10;;;16.30;;
22774;SDS011;11554;51.106;3.684;2023-09-12T23:35:00;23.10;;;16.30;;
22774;SDS011;11554;51.106;3.684;2023-09-12T23:40:00;25.20;;;17.90;;
22774;SDS011;11554;51.106;3.684;2023-09-12T23:45:01;25.20;;;17.90;;
22774;SDS011;11554;51.106;3.684;2023-09-12T23:50:00;26.00;;;18.30;;
22774;SDS011;11554;51.106;3.684;2023-09-12T23:55:00;26.00;;;18.30;;
